createdAt,value
2018-08-25T00:00:00.583Z,2.10
2018-08-25T00:02:29.414Z,2.97
2018-08-25T00:04:58.163Z,2.50
2018-08-25T00:07:27.152Z,2.10
2018-08-25T00:09:56.120Z,2.30
2018-08-25T00:12:24.919Z,2.20
2018-08-25T00:14:54.003Z,2.60
2018-08-25T00:17:22.768Z,1.97
2018-08-25T00:19:51.570Z,2.37
2018-08-25T00:22:20.722Z,2.60
2018-08-25T00:24:49.477Z,2.33
2018-08-25T00:27:18.240Z,2.30
2018-08-25T00:29:47.146Z,2.37
2018-08-25T00:32:15.951Z,2.10
2018-08-25T00:34:44.736Z,2.70
2018-08-25T00:37:13.794Z,2.17
2018-08-25T00:39:42.566Z,2.00
2018-08-25T00:42:11.430Z,2.57
2018-08-25T00:44:40.708Z,1.87
2018-08-25T00:47:09.595Z,1.83
2018-08-25T00:49:38.386Z,2.43
2018-08-25T00:52:07.497Z,1.87
2018-08-25T00:54:36.435Z,2.40
2018-08-25T00:57:05.312Z,2.07
2018-08-25T00:59:34.294Z,1.90
2018-08-25T01:02:03.083Z,2.30
2018-08-25T01:04:31.848Z,2.67
2018-08-25T01:07:00.944Z,2.80
2018-08-25T01:09:30.048Z,2.30
2018-08-25T01:11:58.887Z,2.40
2018-08-25T01:14:27.807Z,2.83
2018-08-25T01:16:56.607Z,1.90
2018-08-25T01:19:25.388Z,2.03
2018-08-25T01:21:54.363Z,2.07
2018-08-25T01:24:23.139Z,2.23
2018-08-25T01:26:51.882Z,2.37
2018-08-25T01:29:20.768Z,2.20
2018-08-25T01:31:49.529Z,2.10
2018-08-25T01:34:18.325Z,2.23
2018-08-25T01:36:47.391Z,2.00
2018-08-25T01:39:16.189Z,2.40
2018-08-25T01:41:45.112Z,2.07
2018-08-25T01:44:14.033Z,2.00
2018-08-25T01:46:42.863Z,1.97
2018-08-25T01:49:11.615Z,1.87
2018-08-25T01:51:40.997Z,2.07
2018-08-25T01:54:09.815Z,2.07
2018-08-25T01:56:38.615Z,2.40
2018-08-25T01:59:07.827Z,2.33
2018-08-25T02:01:36.579Z,2.40
2018-08-25T02:04:05.377Z,2.53
2018-08-25T02:06:34.655Z,2.00
2018-08-25T02:09:05.707Z,2.33
2018-08-25T02:11:34.555Z,2.40
2018-08-25T02:14:03.353Z,2.10
2018-08-25T02:16:32.122Z,2.27
2018-08-25T02:19:01.085Z,2.13
2018-08-25T02:21:30.261Z,1.90
2018-08-25T02:23:59.091Z,2.13
2018-08-25T02:26:28.307Z,2.50
2018-08-25T02:28:57.054Z,1.97
2018-08-25T02:31:25.826Z,1.90
2018-08-25T02:33:55.227Z,2.30
2018-08-25T02:36:24.057Z,2.30
2018-08-25T02:38:52.825Z,2.10
2018-08-25T02:41:21.998Z,2.40
2018-08-25T02:43:50.727Z,2.43
2018-08-25T02:46:20.152Z,1.97
2018-08-25T02:48:49.238Z,1.97
2018-08-25T02:51:18.067Z,2.57
2018-08-25T02:53:46.836Z,2.13
2018-08-25T02:56:15.975Z,2.20
2018-08-25T02:58:44.799Z,2.00
2018-08-25T03:01:13.693Z,3.03
2018-08-25T03:03:43.146Z,2.90
2018-08-25T03:06:13.175Z,2.20
2018-08-25T03:08:41.919Z,2.40
2018-08-25T03:11:10.807Z,2.47
2018-08-25T03:13:39.982Z,2.43
2018-08-25T03:16:08.751Z,2.57
2018-08-25T03:18:38.260Z,2.53
2018-08-25T03:21:07.536Z,2.27
2018-08-25T03:23:36.297Z,2.53
2018-08-25T03:26:05.551Z,2.27
2018-08-25T03:28:34.392Z,2.23
2018-08-25T03:31:03.163Z,2.13
2018-08-25T03:33:32.068Z,2.37
2018-08-25T03:36:00.841Z,2.70
2018-08-25T03:38:29.679Z,2.70
2018-08-25T03:40:58.798Z,2.10
2018-08-25T03:43:27.554Z,2.37
2018-08-25T03:45:56.304Z,2.30
2018-08-25T03:48:25.240Z,2.37
2018-08-25T03:50:54.074Z,2.50
2018-08-25T03:53:22.914Z,2.63
2018-08-25T03:55:51.915Z,2.40
2018-08-25T03:58:21.161Z,2.50
2018-08-25T04:00:49.930Z,2.27
2018-08-25T04:03:19.135Z,2.20
2018-08-25T04:05:47.906Z,2.30
2018-08-25T04:08:16.834Z,2.13
2018-08-25T04:10:46.011Z,1.80
2018-08-25T04:13:14.782Z,2.20
2018-08-25T04:15:43.616Z,2.30
2018-08-25T04:18:12.576Z,1.97
2018-08-25T04:20:41.323Z,2.30
2018-08-25T04:23:10.102Z,2.67
2018-08-25T04:25:39.019Z,2.23
2018-08-25T04:28:09.919Z,2.53
2018-08-25T04:30:38.687Z,2.10
2018-08-25T04:33:07.742Z,2.37
2018-08-25T04:35:36.553Z,2.33
2018-08-25T04:38:05.445Z,2.50
2018-08-25T04:40:34.472Z,2.80
2018-08-25T04:43:03.258Z,2.40
2018-08-25T04:45:32.071Z,2.37
2018-08-25T04:48:01.157Z,2.50
2018-08-25T04:50:29.935Z,2.07
2018-08-25T04:52:58.762Z,2.27
2018-08-25T04:55:27.656Z,2.50
2018-08-25T04:57:56.440Z,2.70
2018-08-25T05:00:25.247Z,2.37
2018-08-25T05:02:54.140Z,2.13
2018-08-25T05:05:22.959Z,2.57
2018-08-25T05:07:51.800Z,3.60
2018-08-25T05:10:20.961Z,2.83
2018-08-25T05:12:49.760Z,2.70
2018-08-25T05:15:18.538Z,2.53
2018-08-25T05:17:47.531Z,2.47
2018-08-25T05:20:16.326Z,2.73
2018-08-25T05:22:45.125Z,2.77
2018-08-25T05:25:14.207Z,3.13
2018-08-25T05:27:42.959Z,2.80
2018-08-25T05:30:11.891Z,2.53
2018-08-25T05:32:41.192Z,2.80
2018-08-25T05:35:09.985Z,3.07
2018-08-25T05:37:38.774Z,3.17
2018-08-25T05:40:07.983Z,3.13
2018-08-25T05:42:36.788Z,2.67
2018-08-25T05:45:11.999Z,3.27
2018-08-25T05:47:40.755Z,2.70
2018-08-25T05:50:09.624Z,2.97
2018-08-25T05:52:39.075Z,3.10
2018-08-25T05:55:07.883Z,2.70
2018-08-25T05:57:36.700Z,2.47
2018-08-25T06:00:06.167Z,2.80
2018-08-25T06:02:34.944Z,2.93
2018-08-25T06:05:04.011Z,2.63
2018-08-25T06:07:32.759Z,3.10
2018-08-25T06:10:01.658Z,3.13
2018-08-25T06:12:30.522Z,2.90
2018-08-25T06:14:59.402Z,2.90
2018-08-25T06:17:28.221Z,3.23
2018-08-25T06:19:57.060Z,3.00
2018-08-25T06:22:25.851Z,3.13
2018-08-25T06:24:54.656Z,3.27
2018-08-25T06:27:23.391Z,3.07
2018-08-25T06:29:52.332Z,2.80
2018-08-25T06:32:21.082Z,2.67
2018-08-25T06:34:49.873Z,3.10
2018-08-25T06:37:18.607Z,2.90
2018-08-25T06:39:47.378Z,3.13
2018-08-25T06:42:16.585Z,3.00
2018-08-25T06:44:45.390Z,2.80
2018-08-25T06:47:14.157Z,3.50
2018-08-25T06:49:42.892Z,3.40
2018-08-25T06:52:11.711Z,3.47
2018-08-25T06:54:40.566Z,3.40
2018-08-25T06:57:09.383Z,2.97
2018-08-25T06:59:38.305Z,2.80
2018-08-25T07:02:07.162Z,3.50
2018-08-25T07:04:35.939Z,2.93
2018-08-25T07:07:05.253Z,2.67
2018-08-25T07:09:33.992Z,3.20
2018-08-25T07:12:02.959Z,3.40
2018-08-25T07:14:31.756Z,3.10
2018-08-25T07:17:00.598Z,3.80
2018-08-25T07:19:29.439Z,2.87
2018-08-25T07:21:58.228Z,3.47
2018-08-25T07:24:26.962Z,3.30
2018-08-25T07:26:55.768Z,3.53
2018-08-25T07:29:24.510Z,3.53
2018-08-25T07:31:53.375Z,3.93
2018-08-25T07:34:22.110Z,4.33
2018-08-25T07:36:50.903Z,3.80
2018-08-25T07:39:19.959Z,3.80
2018-08-25T07:41:48.758Z,3.33
2018-08-25T07:44:17.553Z,3.50
2018-08-25T07:46:46.341Z,3.33
2018-08-25T07:49:15.147Z,3.50
2018-08-25T07:51:43.958Z,3.43
2018-08-25T07:54:12.747Z,5.57
2018-08-25T07:56:41.675Z,4.63
2018-08-25T07:59:10.545Z,4.97
2018-08-25T08:01:39.278Z,4.47
2018-08-25T08:04:08.076Z,3.30
2018-08-25T08:06:36.871Z,3.93
2018-08-25T08:09:09.032Z,4.63
2018-08-25T08:11:37.817Z,3.50
2018-08-25T08:14:06.941Z,4.50
2018-08-25T08:16:35.691Z,3.73
2018-08-25T08:19:04.674Z,4.30
2018-08-25T08:21:33.495Z,4.30
2018-08-25T08:24:02.301Z,3.73
2018-08-25T08:26:31.064Z,5.13
2018-08-25T08:28:59.840Z,5.30
2018-08-25T08:31:28.637Z,4.37
2018-08-25T08:33:57.575Z,4.87
2018-08-25T08:36:26.644Z,5.33
2018-08-25T08:38:55.608Z,6.60
2018-08-25T08:41:24.392Z,7.57
2018-08-25T08:43:53.169Z,7.77
2018-08-25T08:46:27.671Z,7.73
2018-08-25T08:48:56.445Z,9.23
2018-08-25T08:51:25.299Z,9.40
2018-08-25T08:53:54.069Z,6.20
2018-08-25T08:56:22.947Z,7.77
2018-08-25T08:58:51.755Z,7.37
2018-08-25T09:01:20.644Z,6.10
2018-08-25T09:03:49.436Z,6.33
2018-08-25T09:06:18.323Z,5.53
2018-08-25T09:08:47.344Z,5.30
2018-08-25T09:11:16.193Z,5.70
2018-08-25T09:13:45.028Z,5.77
2018-08-25T09:16:13.866Z,5.40
2018-08-25T09:18:42.908Z,5.93
2018-08-25T09:21:11.776Z,5.47
2018-08-25T09:23:40.518Z,5.70
2018-08-25T09:26:09.316Z,5.63
2018-08-25T09:28:38.095Z,4.97
2018-08-25T09:31:06.936Z,5.23
2018-08-25T09:33:35.744Z,5.23
2018-08-25T09:36:04.599Z,4.40
2018-08-25T09:38:33.442Z,3.90
2018-08-25T09:41:02.547Z,4.90
2018-08-25T09:43:31.290Z,4.87
2018-08-25T09:46:00.899Z,4.07
2018-08-25T09:48:30.078Z,4.23
2018-08-25T09:50:58.864Z,4.30
2018-08-25T09:53:27.680Z,3.97
2018-08-25T09:55:56.561Z,4.10
2018-08-25T09:58:25.357Z,3.93
2018-08-25T10:00:59.971Z,3.50
2018-08-25T10:03:28.784Z,3.83
2018-08-25T10:05:57.576Z,3.87
2018-08-25T10:08:26.652Z,4.23
2018-08-25T10:10:55.422Z,3.93
2018-08-25T10:13:24.368Z,4.23
2018-08-25T10:15:53.183Z,4.73
2018-08-25T10:18:21.989Z,4.07
2018-08-25T10:20:50.903Z,3.97
2018-08-25T10:23:20.033Z,4.40
2018-08-25T10:25:48.768Z,4.93
2018-08-25T10:28:17.599Z,5.73
2018-08-25T10:30:46.351Z,5.60
2018-08-25T10:33:15.242Z,4.43
2018-08-25T10:35:44.041Z,3.77
2018-08-25T10:38:12.891Z,4.00
2018-08-25T10:40:41.904Z,4.10
2018-08-25T10:43:10.653Z,3.30
2018-08-25T10:45:39.509Z,3.17
2018-08-25T10:48:08.344Z,3.53
2018-08-25T10:50:37.164Z,4.50
2018-08-25T10:53:05.986Z,4.63
2018-08-25T10:55:34.808Z,3.83
2018-08-25T10:58:03.660Z,3.70
2018-08-25T11:00:32.476Z,3.50
2018-08-25T11:03:01.827Z,3.30
2018-08-25T11:05:30.635Z,2.93
2018-08-25T11:07:59.400Z,3.50
2018-08-25T11:10:28.288Z,3.17
2018-08-25T11:12:57.072Z,3.33
2018-08-25T11:15:25.919Z,2.87
2018-08-25T11:17:54.674Z,2.97
2018-08-25T11:20:23.576Z,2.10
2018-08-25T11:22:52.415Z,2.60
2018-08-25T11:25:21.243Z,3.20
2018-08-25T11:27:49.995Z,3.13
2018-08-25T11:30:18.878Z,3.00
2018-08-25T11:32:47.719Z,2.47
2018-08-25T11:35:16.899Z,3.00
2018-08-25T11:37:45.733Z,2.70
2018-08-25T11:40:14.499Z,2.77
2018-08-25T11:42:43.324Z,2.80
2018-08-25T11:45:12.117Z,3.50
2018-08-25T11:47:40.994Z,3.17
2018-08-25T11:50:09.759Z,2.90
2018-08-25T11:52:38.554Z,2.80
2018-08-25T11:55:07.392Z,3.47
2018-08-25T11:57:36.175Z,2.70
2018-08-25T12:00:06.897Z,3.03
2018-08-25T12:02:35.707Z,3.13
2018-08-25T12:05:04.616Z,3.37
2018-08-25T12:07:33.408Z,3.10
2018-08-25T12:10:02.167Z,2.90
2018-08-25T12:12:32.955Z,3.00
2018-08-25T12:15:01.796Z,2.83
2018-08-25T12:17:31.004Z,3.30
2018-08-25T12:19:59.756Z,3.67
2018-08-25T12:22:28.556Z,3.53
2018-08-25T12:24:57.445Z,2.90
2018-08-25T12:27:28.499Z,2.23
2018-08-25T12:29:57.243Z,2.50
2018-08-25T12:32:26.011Z,2.20
2018-08-25T12:34:54.844Z,2.40
2018-08-25T12:37:23.648Z,2.23
2018-08-25T12:39:52.480Z,2.40
2018-08-25T12:42:21.249Z,2.40
2018-08-25T12:44:50.083Z,2.30
2018-08-25T12:47:23.549Z,2.30
2018-08-25T12:49:53.505Z,1.87
2018-08-25T12:52:22.556Z,1.70
2018-08-25T12:54:51.398Z,1.70
2018-08-25T12:57:20.860Z,1.90
2018-08-25T12:59:49.718Z,1.80
2018-08-25T13:02:18.539Z,2.10
2018-08-25T13:04:47.340Z,2.20
2018-08-25T13:07:16.150Z,1.67
2018-08-25T13:09:45.008Z,1.80
2018-08-25T13:12:14.112Z,1.70
2018-08-25T13:14:43.614Z,1.83
2018-08-25T13:17:12.383Z,1.70
2018-08-25T13:19:41.210Z,1.50
2018-08-25T13:22:10.093Z,1.83
2018-08-25T13:24:38.922Z,2.00
2018-08-25T13:27:07.798Z,1.90
2018-08-25T13:29:36.626Z,1.83
2018-08-25T13:32:05.456Z,1.60
2018-08-25T13:34:34.295Z,1.13
2018-08-25T13:37:03.173Z,1.57
2018-08-25T13:39:32.064Z,1.07
2018-08-25T13:42:00.950Z,0.80
2018-08-25T13:44:29.719Z,0.60
2018-08-25T13:46:58.543Z,0.70
2018-08-25T13:49:27.383Z,0.40
2018-08-25T13:51:56.271Z,0.30
2018-08-25T13:54:25.049Z,0.33
2018-08-25T13:56:53.860Z,0.30
2018-08-25T13:59:22.623Z,0.50
2018-08-25T14:01:51.426Z,0.30
2018-08-25T14:04:20.251Z,0.30
2018-08-25T14:06:49.479Z,0.50
2018-08-25T14:09:18.259Z,0.70
2018-08-25T14:11:47.094Z,0.93
2018-08-25T14:14:15.884Z,1.13
2018-08-25T14:16:44.743Z,1.13
2018-08-25T14:19:13.533Z,0.90
2018-08-25T14:21:42.378Z,0.77
2018-08-25T14:24:11.767Z,0.87
2018-08-25T14:26:40.621Z,1.20
2018-08-25T14:29:09.460Z,1.80
2018-08-25T14:31:38.217Z,1.10
2018-08-25T14:34:07.053Z,1.47
2018-08-25T14:36:35.927Z,2.53
2018-08-25T14:39:07.226Z,2.60
2018-08-25T14:41:36.193Z,3.67
2018-08-25T14:44:05.581Z,4.60
2018-08-25T14:46:35.592Z,4.33
2018-08-25T14:49:04.695Z,4.40
2018-08-25T14:51:33.443Z,3.50
2018-08-25T14:54:02.611Z,2.00
2018-08-25T14:56:31.350Z,1.53
2018-08-25T14:59:01.031Z,1.10
2018-08-25T15:01:29.792Z,1.00
2018-08-25T15:03:58.597Z,1.10
2018-08-25T15:06:27.427Z,1.20
2018-08-25T15:08:56.274Z,1.20
2018-08-25T15:11:25.184Z,1.00
2018-08-25T15:13:54.034Z,1.10
2018-08-25T15:16:22.785Z,0.90
2018-08-25T15:18:51.706Z,0.67
2018-08-25T15:21:20.487Z,0.90
2018-08-25T15:23:49.295Z,0.77
2018-08-25T15:26:18.135Z,0.80
2018-08-25T15:28:46.955Z,0.83
2018-08-25T15:31:15.790Z,0.90
2018-08-25T15:33:44.615Z,0.70
2018-08-25T15:36:13.418Z,0.70
2018-08-25T15:38:42.327Z,0.60
2018-08-25T15:41:11.212Z,0.57
2018-08-25T15:43:40.206Z,0.40
2018-08-25T15:46:09.045Z,0.60
2018-08-25T15:48:37.803Z,0.40
2018-08-25T15:51:06.714Z,0.70
2018-08-25T15:53:35.690Z,0.40
2018-08-25T15:56:04.691Z,0.50
2018-08-25T15:58:33.459Z,0.80
2018-08-25T16:01:02.275Z,0.60
2018-08-25T16:03:31.062Z,0.50
2018-08-25T16:05:59.925Z,0.70
2018-08-25T16:08:28.738Z,0.70
2018-08-25T16:10:57.538Z,0.83
2018-08-25T16:13:26.288Z,0.80
2018-08-25T16:15:55.121Z,0.77
2018-08-25T16:18:23.902Z,0.73
2018-08-25T16:20:52.788Z,0.80
2018-08-25T16:23:21.566Z,0.83
2018-08-25T16:25:50.368Z,0.60
2018-08-25T16:28:19.131Z,0.67
2018-08-25T16:30:47.945Z,0.60
2018-08-25T16:33:16.899Z,0.90
2018-08-25T16:35:45.695Z,0.30
2018-08-25T16:38:14.491Z,0.50
2018-08-25T16:40:43.261Z,0.40
2018-08-25T16:43:12.319Z,0.57
2018-08-25T16:45:41.174Z,0.73
2018-08-25T16:48:09.974Z,0.80
2018-08-25T16:50:39.330Z,0.60
2018-08-25T16:53:08.136Z,0.77
2018-08-25T16:55:37.392Z,0.60
2018-08-25T16:58:06.271Z,0.83
2018-08-25T17:00:35.042Z,0.40
2018-08-25T17:03:03.875Z,0.57
2018-08-25T17:05:32.633Z,0.53
2018-08-25T17:08:01.463Z,0.60
2018-08-25T17:10:30.383Z,0.67
2018-08-25T17:12:59.183Z,0.50
2018-08-25T17:15:28.509Z,0.90
2018-08-25T17:17:57.399Z,0.70
2018-08-25T17:20:26.860Z,0.50
2018-08-25T17:22:56.661Z,0.60
2018-08-25T17:25:25.459Z,0.60
2018-08-25T17:27:56.035Z,0.70
2018-08-25T17:30:24.796Z,0.77
2018-08-25T17:32:53.559Z,0.53
2018-08-25T17:35:22.455Z,0.70
2018-08-25T17:37:51.232Z,0.70
2018-08-25T17:40:20.035Z,0.80
2018-08-25T17:42:48.824Z,0.77
2018-08-25T17:45:17.659Z,0.90
2018-08-25T17:47:46.604Z,0.60
2018-08-25T17:50:15.472Z,0.53
2018-08-25T17:52:44.305Z,0.70
2018-08-25T17:55:13.248Z,0.50
2018-08-25T17:57:42.245Z,0.50
2018-08-25T18:00:13.028Z,0.60
2018-08-25T18:02:41.801Z,0.50
2018-08-25T18:05:11.221Z,0.67
2018-08-25T18:07:40.376Z,0.50
2018-08-25T18:10:09.664Z,0.50
2018-08-25T18:12:38.471Z,0.50
2018-08-25T18:15:07.788Z,0.50
2018-08-25T18:17:36.963Z,0.50
2018-08-25T18:20:05.951Z,0.47
2018-08-25T18:22:34.729Z,0.43
2018-08-25T18:25:04.235Z,0.70
2018-08-25T18:27:33.711Z,0.57
2018-08-25T18:30:02.467Z,0.80
2018-08-25T18:32:31.635Z,1.03
2018-08-25T18:35:00.851Z,1.00
2018-08-25T18:37:29.651Z,0.60
2018-08-25T18:39:58.579Z,0.63
2018-08-25T18:42:27.722Z,0.63
2018-08-25T18:44:56.611Z,0.50
2018-08-25T18:47:25.973Z,0.60
2018-08-25T18:49:55.439Z,0.70
2018-08-25T18:52:24.202Z,0.67
2018-08-25T18:54:54.900Z,0.60
2018-08-25T18:57:23.511Z,0.90
2018-08-25T18:59:52.281Z,0.90
2018-08-25T19:02:21.514Z,0.77
2018-08-25T19:04:50.312Z,0.60
2018-08-25T19:07:19.070Z,0.80
2018-08-25T19:09:48.388Z,0.70
2018-08-25T19:12:17.143Z,1.13
2018-08-25T19:14:46.263Z,0.80
2018-08-25T19:17:15.210Z,1.03
2018-08-25T19:19:43.978Z,1.00
2018-08-25T19:22:12.981Z,1.10
2018-08-25T19:24:42.061Z,0.90
2018-08-25T19:27:10.972Z,1.20
2018-08-25T19:29:39.902Z,1.23
2018-08-25T19:32:09.040Z,1.30
2018-08-25T19:34:37.781Z,1.10
2018-08-25T19:37:06.804Z,1.10
2018-08-25T19:39:35.832Z,1.03
2018-08-25T19:42:04.835Z,1.33
2018-08-25T19:44:33.961Z,1.47
2018-08-25T19:47:03.220Z,1.30
2018-08-25T19:49:32.241Z,1.27
2018-08-25T19:52:01.303Z,1.23
2018-08-25T19:54:30.340Z,1.50
2018-08-25T19:56:59.095Z,1.57
2018-08-25T19:59:27.857Z,1.40
2018-08-25T20:01:56.976Z,2.17
2018-08-25T20:04:25.783Z,2.33
2018-08-25T20:06:54.546Z,1.50
2018-08-25T20:09:23.665Z,1.80
2018-08-25T20:11:52.419Z,1.13
2018-08-25T20:14:21.551Z,1.20
2018-08-25T20:16:50.736Z,1.53
2018-08-25T20:19:19.503Z,1.60
2018-08-25T20:21:48.256Z,1.33
2018-08-25T20:24:17.279Z,1.40
2018-08-25T20:26:46.031Z,1.80
2018-08-25T20:29:14.952Z,1.73
2018-08-25T20:31:43.828Z,1.60
2018-08-25T20:34:17.546Z,2.10
2018-08-25T20:36:46.340Z,1.60
2018-08-25T20:39:15.216Z,1.37
2018-08-25T20:41:44.363Z,1.80
2018-08-25T20:44:13.148Z,1.80
2018-08-25T20:46:41.911Z,1.40
2018-08-25T20:49:11.151Z,1.30
2018-08-25T20:51:40.089Z,1.77
2018-08-25T20:54:08.844Z,1.37
2018-08-25T20:56:37.740Z,1.50
2018-08-25T20:59:06.522Z,1.50
2018-08-25T21:01:35.301Z,1.60
2018-08-25T21:04:04.495Z,2.00
2018-08-25T21:06:33.277Z,1.90
2018-08-25T21:09:02.043Z,1.63
2018-08-25T21:11:31.176Z,1.90
2018-08-25T21:13:59.972Z,1.50
2018-08-25T21:16:29.066Z,1.57
2018-08-25T21:18:58.235Z,1.40
2018-08-25T21:21:27.094Z,1.10
2018-08-25T21:23:55.931Z,1.20
2018-08-25T21:26:25.039Z,1.30
2018-08-25T21:28:53.852Z,0.87
2018-08-25T21:31:22.651Z,0.87
2018-08-25T21:33:51.718Z,1.07
2018-08-25T21:36:20.515Z,1.20
2018-08-25T21:38:49.295Z,1.43
2018-08-25T21:41:18.427Z,1.30
2018-08-25T21:43:47.164Z,1.40
2018-08-25T21:46:15.919Z,1.03
2018-08-25T21:48:45.072Z,1.30
2018-08-25T21:51:13.935Z,1.07
2018-08-25T21:53:42.715Z,1.57
2018-08-25T21:56:11.841Z,1.40
2018-08-25T21:58:40.677Z,1.53
2018-08-25T22:01:09.488Z,1.47
2018-08-25T22:03:38.376Z,1.47
2018-08-25T22:06:07.403Z,1.50
2018-08-25T22:08:36.179Z,1.70
2018-08-25T22:11:05.317Z,1.33
2018-08-25T22:13:34.105Z,2.23
2018-08-25T22:16:02.892Z,1.37
2018-08-25T22:18:31.862Z,1.90
2018-08-25T22:21:00.672Z,1.60
2018-08-25T22:23:29.427Z,2.00
2018-08-25T22:25:58.321Z,1.90
2018-08-25T22:28:27.119Z,1.90
2018-08-25T22:30:55.956Z,1.60
2018-08-25T22:33:24.928Z,1.70
2018-08-25T22:35:53.683Z,1.40
2018-08-25T22:38:22.476Z,1.70
2018-08-25T22:40:51.611Z,1.60
2018-08-25T22:43:20.433Z,1.50
2018-08-25T22:45:49.211Z,2.00
2018-08-25T22:48:18.350Z,1.33
2018-08-25T22:50:47.132Z,1.50
2018-08-25T22:53:15.894Z,1.40
2018-08-25T22:55:44.869Z,1.40
2018-08-25T22:58:13.648Z,1.03
2018-08-25T23:00:42.440Z,1.07
2018-08-25T23:03:11.635Z,1.60
2018-08-25T23:05:40.405Z,1.37
2018-08-25T23:08:09.216Z,1.33
2018-08-25T23:10:38.450Z,1.87
2018-08-25T23:13:07.218Z,1.27
2018-08-25T23:15:35.981Z,1.40
2018-08-25T23:18:05.436Z,1.30
2018-08-25T23:20:34.267Z,1.10
2018-08-25T23:23:03.467Z,1.13
2018-08-25T23:25:32.531Z,1.20
2018-08-25T23:28:01.284Z,1.10
2018-08-25T23:30:30.162Z,1.40
2018-08-25T23:32:59.228Z,1.30
2018-08-25T23:35:28.017Z,1.07
2018-08-25T23:37:56.812Z,1.53
2018-08-25T23:40:25.761Z,1.40
2018-08-25T23:42:54.537Z,1.40
2018-08-25T23:45:23.366Z,1.33
2018-08-25T23:47:52.525Z,1.47
2018-08-25T23:50:21.284Z,1.60
2018-08-25T23:52:50.361Z,1.27
2018-08-25T23:55:19.602Z,1.70
2018-08-25T23:57:48.399Z,1.53
